Time;durP1;ratioP1;P1;durP2;ratioP2;P2;SDS_P1;SDS_P2;PMS_P1;PMS_P2;Temp;Humidity;BMP_temperature;BMP_pressure;BME280_temperature;BME280_humidity;BME280_pressure;Samples;Min_cycle;Max_cycle;Signal;HPM_P1;HPM_P2
2023/02/20 00:01:23;;;;;;;7.47;3.00;;;;;;;5.38;100.00;102131.47;4992657;28;20250;-67
2023/02/20 00:03:49;;;;;;;8.23;2.77;;;;;;;5.44;100.00;102131.81;4992906;28;20275;-69
2023/02/20 00:06:14;;;;;;;6.97;3.30;;;;;;;5.47;100.00;102129.44;4989014;28;20744;-66
2023/02/20 00:08:40;;;;;;;7.60;3.03;;;;;;;5.50;100.00;102117.84;4994119;28;20195;-69
2023/02/20 00:11:05;;;;;;;8.07;3.23;;;;;;;5.51;100.00;102118.69;4991757;28;20265;-68
2023/02/20 00:13:31;;;;;;;9.77;3.23;;;;;;;5.52;100.00;102108.63;4994395;28;20230;-68
2023/02/20 00:15:56;;;;;;;6.37;2.60;;;;;;;5.55;100.00;102108.81;4981272;28;20188;-67
2023/02/20 00:18:22;;;;;;;8.57;3.30;;;;;;;5.58;100.00;102093.75;4990011;28;20800;-69
2023/02/20 00:20:47;;;;;;;9.43;3.70;;;;;;;5.64;100.00;102083.06;4992814;28;20238;-68
2023/02/20 00:23:13;;;;;;;9.27;3.30;;;;;;;5.64;100.00;102080.53;4992223;28;20223;-68
2023/02/20 00:25:38;;;;;;;8.93;3.90;;;;;;;5.66;100.00;102086.59;4992444;28;20234;-69
2023/02/20 00:28:04;;;;;;;5.90;3.67;;;;;;;5.67;100.00;102081.56;4994094;28;20188;-68
2023/02/20 00:30:30;;;;;;;8.37;3.57;;;;;;;5.68;100.00;102074.84;4992203;28;20314;-68
2023/02/20 00:32:56;;;;;;;8.70;4.83;;;;;;;5.72;100.00;102061.53;4993772;28;20204;-68
2023/02/20 00:35:23;;;;;;;7.60;4.63;;;;;;;5.71;100.00;102065.72;4990255;28;20227;-68
2023/02/20 00:37:49;;;;;;;8.63;4.70;;;;;;;5.73;100.00;102051.47;4991264;28;20231;-68
2023/02/20 00:40:16;;;;;;;7.33;5.10;;;;;;;5.71;100.00;102040.31;4985434;28;20247;-69
2023/02/20 00:42:42;;;;;;;9.60;4.80;;;;;;;5.72;100.00;102037.03;4990881;28;20274;-68
2023/02/20 00:45:08;;;;;;;10.10;5.00;;;;;;;5.73;100.00;102028.59;4987545;28;20558;-68
2023/02/20 00:47:35;;;;;;;12.07;5.07;;;;;;;5.74;100.00;102016.75;4992790;28;20198;-68
2023/02/20 00:50:01;;;;;;;7.63;5.13;;;;;;;5.72;100.00;102009.06;4987953;28;20227;-69
2023/02/20 00:52:27;;;;;;;7.50;5.37;;;;;;;5.73;100.00;102005.75;4986979;28;20223;-69
2023/02/20 00:54:52;;;;;;;10.97;5.67;;;;;;;5.75;100.00;101995.66;4990642;28;20204;-68
2023/02/20 00:57:18;;;;;;;8.50;5.67;;;;;;;5.78;100.00;101998.34;5003752;28;20216;-66
2023/02/20 00:59:43;;;;;;;8.00;5.80;;;;;;;5.77;100.00;101989.88;4991542;28;20357;-69
2023/02/20 01:02:09;;;;;;;9.70;5.40;;;;;;;5.75;100.00;101978.72;4998703;28;20250;-68
2023/02/20 01:04:35;;;;;;;7.00;5.33;;;;;;;5.76;100.00;101977.09;4996004;28;20223;-66
2023/02/20 01:07:01;;;;;;;8.73;5.83;;;;;;;5.77;100.00;101973.75;4991853;28;20183;-67
2023/02/20 01:09:27;;;;;;;10.70;6.13;;;;;;;5.78;100.00;101963.69;4994561;28;20196;-67
2023/02/20 01:11:53;;;;;;;10.27;6.53;;;;;;;5.76;100.00;101951.69;4993572;28;20238;-68
2023/02/20 01:14:19;;;;;;;11.67;6.33;;;;;;;5.79;100.00;101962.00;4992011;28;20272;-68
2023/02/20 01:16:52;;;;;;;11.40;5.80;;;;;;;5.79;100.00;101967.06;4995037;28;20245;-68
2023/02/20 01:19:20;;;;;;;8.53;5.57;;;;;;;5.81;100.00;101970.63;4989454;28;20204;-68
2023/02/20 01:21:47;;;;;;;10.97;6.23;;;;;;;5.83;100.00;101977.53;4979213;28;20215;-69
2023/02/20 01:24:13;;;;;;;8.43;5.47;;;;;;;5.82;100.00;101977.44;4994115;28;20286;-69
2023/02/20 01:26:43;;;;;;;9.30;5.53;;;;;;;5.82;100.00;101972.38;4995084;28;20876;-68
2023/02/20 01:29:09;;;;;;;10.30;4.97;;;;;;;5.81;100.00;101956.22;4994618;28;20495;-67
2023/02/20 01:31:34;;;;;;;9.67;5.27;;;;;;;5.82;100.00;101947.84;4990120;28;20223;-68
2023/02/20 01:34:00;;;;;;;7.83;4.77;;;;;;;5.84;100.00;101942.84;4995514;28;20610;-68
2023/02/20 01:36:28;;;;;;;9.60;4.70;;;;;;;5.84;100.00;101938.63;4976033;28;20270;-68
2023/02/20 01:38:54;;;;;;;7.53;4.60;;;;;;;5.85;100.00;101934.44;4989565;28;20299;-68
2023/02/20 01:41:20;;;;;;;6.53;4.63;;;;;;;5.86;100.00;101939.59;4992368;28;20215;-68
2023/02/20 01:43:46;;;;;;;8.67;4.30;;;;;;;5.87;100.00;101933.72;4994242;28;20202;-64
2023/02/20 01:46:26;;;;;;;8.60;4.13;;;;;;;5.91;100.00;101937.31;4987521;28;20196;-67
2023/02/20 01:49:10;;;;;;;8.33;4.13;;;;;;;5.94;100.00;101934.94;4991010;28;20194;-69
2023/02/20 01:51:40;;;;;;;8.77;4.70;;;;;;;5.95;100.00;101932.47;4991355;28;20219;-68
2023/02/20 01:54:08;;;;;;;7.73;4.00;;;;;;;5.96;100.00;101926.63;4974262;28;20208;-68
2023/02/20 01:56:34;;;;;;;7.63;4.53;;;;;;;5.97;100.00;101922.38;4995528;28;20302;-67
2023/02/20 01:59:03;;;;;;;6.70;4.13;;;;;;;5.97;100.00;101920.72;4991570;28;20203;-67
2023/02/20 02:01:29;;;;;;;8.37;4.23;;;;;;;5.98;100.00;101914.84;4979515;28;20208;-69
2023/02/20 02:04:00;;;;;;;6.93;4.33;;;;;;;5.99;100.00;101905.56;4990632;28;20191;-67
2023/02/20 02:06:28;;;;;;;8.27;4.43;;;;;;;6.01;100.00;101893.81;4994460;28;20199;-69
2023/02/20 02:08:57;;;;;;;9.03;4.10;;;;;;;6.00;100.00;101884.44;4979250;28;20184;-69
2023/02/20 02:11:24;;;;;;;7.53;4.17;;;;;;;6.01;100.00;101878.56;4990709;28;20278;-66
2023/02/20 02:13:49;;;;;;;8.60;3.70;;;;;;;6.01;100.00;101866.72;5000664;28;20195;-69
2023/02/20 02:16:21;;;;;;;8.17;4.60;;;;;;;6.02;100.00;101871.00;4990881;28;20265;-68
2023/02/20 02:19:34;;;;;;;7.23;4.43;;;;;;;6.00;100.00;101861.56;4993092;28;21078;-68
2023/02/20 02:22:25;;;;;;;6.07;3.90;;;;;;;6.04;100.00;101864.34;4977952;28;20697;-68
2023/02/20 02:25:10;;;;;;;7.33;4.40;;;;;;;6.03;100.00;101847.34;4984732;28;20195;-69
2023/02/20 02:27:58;;;;;;;6.60;4.00;;;;;;;6.11;100.00;101851.16;4987727;28;20203;-68
2023/02/20 02:30:50;;;;;;;5.67;3.90;;;;;;;6.11;100.00;101835.91;4992457;28;20277;-68
2023/02/20 02:33:56;;;;;;;6.33;3.80;;;;;;;6.17;100.00;101835.38;4988001;28;20661;-69
2023/02/20 02:36:34;;;;;;;8.53;3.93;;;;;;;6.19;100.00;101833.78;4991353;28;20607;-68
2023/02/20 02:39:10;;;;;;;7.80;4.90;;;;;;;6.19;100.00;101821.94;4988128;28;20213;-66
2023/02/20 02:41:55;;;;;;;5.50;4.03;;;;;;;6.23;100.00;101822.97;4998329;28;20233;-67
2023/02/20 02:44:35;;;;;;;7.23;4.53;;;;;;;6.25;100.00;101824.81;5005492;28;20195;-68
2023/02/20 02:47:06;;;;;;;9.07;4.40;;;;;;;6.22;100.00;101824.63;4990878;28;20192;-68
2023/02/20 02:49:41;;;;;;;6.37;3.73;;;;;;;6.22;100.00;101822.09;4987821;28;20282;-67
2023/02/20 02:52:09;;;;;;;5.67;4.27;;;;;;;6.23;100.00;101822.97;4987143;28;20214;-68
2023/02/20 02:54:35;;;;;;;8.07;4.47;;;;;;;6.23;100.00;101830.59;4992289;28;20244;-69
2023/02/20 02:57:24;;;;;;;7.60;4.30;;;;;;;6.24;100.00;101828.16;4991071;28;20310;-67
2023/02/20 02:59:59;;;;;;;7.07;4.47;;;;;;;6.28;100.00;101816.44;5001542;28;20195;-67
2023/02/20 03:02:29;;;;;;;7.47;4.27;;;;;;;6.27;100.00;101807.09;4992447;28;20198;-68
2023/02/20 03:04:56;;;;;;;7.10;4.43;;;;;;;6.31;100.00;101809.00;4986761;28;20227;-69
2023/02/20 03:07:23;;;;;;;7.90;4.83;;;;;;;6.34;100.00;101798.97;5001890;28;20193;-68
2023/02/20 03:10:03;;;;;;;7.20;4.37;;;;;;;6.34;100.00;101787.13;4994312;28;20190;-69
2023/02/20 03:12:38;;;;;;;6.10;4.10;;;;;;;6.37;100.00;101781.31;4989945;28;20197;-69
2023/02/20 03:15:36;;;;;;;8.67;4.93;;;;;;;6.37;100.00;101784.75;4989394;28;20649;-68
2023/02/20 03:18:45;;;;;;;7.07;5.20;;;;;;;6.38;100.00;101777.97;4977699;28;20228;-67
2023/02/20 03:21:17;;;;;;;7.80;4.77;;;;;;;6.38;100.00;101777.97;4998718;28;20238;-67
2023/02/20 03:23:47;;;;;;;6.13;4.40;;;;;;;6.38;100.00;101781.41;4985977;28;20250;-69
2023/02/20 03:26:18;;;;;;;7.93;4.83;;;;;;;6.40;100.00;101777.25;4989887;28;20246;-69
2023/02/20 03:28:52;;;;;;;7.60;4.70;;;;;;;6.39;100.00;101780.59;4966173;28;20235;-68
2023/02/20 03:31:30;;;;;;;8.03;5.43;;;;;;;6.39;100.00;101770.44;4988597;28;20207;-65
2023/02/20 03:43:21;;;;;;;7.97;5.77;;;;;;;6.44;100.00;101742.69;4998472;28;20238;-69
2023/02/20 03:45:47;;;;;;;10.33;6.20;;;;;;;6.45;100.00;101745.28;4988369;28;20614;-69
2023/02/20 03:48:26;;;;;;;10.50;6.23;;;;;;;6.47;100.00;101750.47;4987884;28;20194;-68
2023/02/20 03:53:45;;;;;;;11.20;5.80;;;;;;;6.49;100.00;101747.19;5004667;28;20299;-68
2023/02/20 03:56:16;;;;;;;9.73;6.10;;;;;;;6.50;100.00;101733.69;4972497;28;20619;-69
2023/02/20 03:58:48;;;;;;;8.77;6.13;;;;;;;6.50;100.00;101715.88;4990831;28;20572;-68
2023/02/20 04:01:16;;;;;;;8.83;6.50;;;;;;;6.51;100.00;101725.28;4992403;28;20211;-68
2023/02/20 04:03:46;;;;;;;7.90;5.93;;;;;;;6.53;100.00;101735.50;4980804;28;20192;-68
2023/02/20 04:06:15;;;;;;;8.20;5.70;;;;;;;6.54;100.00;101747.44;4990180;28;20195;-68
2023/02/20 04:08:52;;;;;;;9.30;7.00;;;;;;;6.57;100.00;101756.09;4987458;28;20209;-68
2023/02/20 04:11:30;;;;;;;7.97;6.23;;;;;;;6.58;100.00;101750.19;4992334;28;20218;-67
2023/02/20 04:13:58;;;;;;;9.83;5.93;;;;;;;6.59;100.00;101743.47;4989321;28;20219;-66
2023/02/20 04:16:24;;;;;;;10.27;6.87;;;;;;;6.58;100.00;101734.94;4987281;28;20318;-67
2023/02/20 04:18:50;;;;;;;9.47;6.53;;;;;;;6.55;100.00;101736.47;4987563;28;20191;-69
2023/02/20 04:21:42;;;;;;;9.70;7.00;;;;;;;6.52;100.00;101738.84;5001839;28;20216;-69
2023/02/20 04:24:15;;;;;;;9.43;6.40;;;;;;;6.52;100.00;101727.00;4986958;28;20568;-67
2023/02/20 04:26:41;;;;;;;11.40;6.83;;;;;;;6.52;100.00;101719.38;4991926;28;20763;-68
2023/02/20 04:29:07;;;;;;;12.77;7.30;;;;;;;6.50;100.00;101710.78;4987980;28;20282;-68
2023/02/20 04:31:33;;;;;;;11.87;7.53;;;;;;;6.48;100.00;101704.75;4990963;28;20298;-69
2023/02/20 04:33:58;;;;;;;11.93;7.30;;;;;;;6.46;100.00;101692.75;4990051;28;20195;-69
2023/02/20 04:36:25;;;;;;;9.90;6.43;;;;;;;6.45;100.00;101696.13;4992056;28;20353;-69
2023/02/20 04:38:53;;;;;;;11.93;7.30;;;;;;;6.47;100.00;101697.94;4987806;28;20191;-67
2023/02/20 04:41:23;;;;;;;10.43;7.73;;;;;;;6.47;100.00;101702.13;4990186;28;20908;-67
2023/02/20 04:43:49;;;;;;;12.17;7.37;;;;;;;6.45;100.00;101688.47;4990688;28;20200;-68
2023/02/20 04:46:15;;;;;;;8.43;6.87;;;;;;;6.43;100.00;101683.31;4992212;28;20219;-68
2023/02/20 04:48:41;;;;;;;10.57;7.03;;;;;;;6.42;100.00;101685.78;4996980;28;20218;-68
2023/02/20 04:51:07;;;;;;;10.63;7.70;;;;;;;6.41;100.00;101684.03;4991145;28;20208;-68
2023/02/20 04:53:33;;;;;;;12.67;7.70;;;;;;;6.41;100.00;101672.19;4987618;28;20674;-68
2023/02/20 04:55:59;;;;;;;12.33;7.33;;;;;;;6.39;100.00;101660.19;4986286;28;20238;-68
2023/02/20 04:58:25;;;;;;;10.57;7.73;;;;;;;6.41;100.00;101656.06;4976607;28;20192;-67
2023/02/20 05:01:00;;;;;;;9.93;7.67;;;;;;;6.45;100.00;101645.25;4992770;28;20214;-66
2023/02/20 05:03:26;;;;;;;11.90;8.63;;;;;;;6.43;100.00;101640.06;4997449;28;20263;-69
2023/02/20 05:05:51;;;;;;;12.03;8.50;;;;;;;6.47;100.00;101636.88;4991891;28;20278;-69
2023/02/20 05:08:17;;;;;;;12.20;8.23;;;;;;;6.42;100.00;101630.72;4991040;28;20278;-67
2023/02/20 05:10:42;;;;;;;11.33;8.73;;;;;;;6.42;100.00;101630.72;4987513;28;20207;-69
2023/02/20 05:13:07;;;;;;;12.67;9.10;;;;;;;6.43;100.00;101637.53;4993567;28;20681;-69
2023/02/20 05:15:33;;;;;;;11.03;8.70;;;;;;;6.41;100.00;101643.34;4992529;28;20282;-67
2023/02/20 05:17:58;;;;;;;11.77;8.67;;;;;;;6.45;100.00;101660.50;4989939;28;20274;-69
2023/02/20 05:22:17;;;;;;;14.97;9.67;;;;;;;6.43;100.00;101662.09;4992072;28;20222;-69
2023/02/20 05:23:09;;;;;;;14.90;10.33;;;;;;;6.41;100.00;101658.59;4988149;28;20668;-67
2023/02/20 05:25:35;;;;;;;13.90;10.13;;;;;;;6.43;100.00;101644.28;4988771;28;20200;-68
2023/02/20 05:28:00;;;;;;;15.67;10.30;;;;;;;6.45;100.00;101632.53;4992712;28;20195;-67
2023/02/20 05:30:26;;;;;;;18.13;11.17;;;;;;;6.52;100.00;101626.91;4992466;28;20215;-65
2023/02/20 05:32:51;;;;;;;17.40;10.83;;;;;;;6.50;100.00;101618.34;4996174;28;20285;-69
2023/02/20 05:35:16;;;;;;;15.00;11.37;;;;;;;6.52;100.00;101611.66;4988061;28;20332;-68
2023/02/20 05:37:42;;;;;;;15.53;11.17;;;;;;;6.56;100.00;101618.63;4994327;28;20218;-68
2023/02/20 05:40:08;;;;;;;14.17;11.20;;;;;;;6.53;100.00;101610.84;4993378;28;20219;-68
2023/02/20 05:42:33;;;;;;;18.77;12.33;;;;;;;6.57;100.00;101607.66;4992524;28;20242;-69
2023/02/20 05:45:01;;;;;;;17.27;11.23;;;;;;;6.58;100.00;101600.09;4992525;28;20799;-68
2023/02/20 05:47:26;;;;;;;15.47;11.10;;;;;;;6.61;100.00;101604.47;4993132;28;20273;-68
2023/02/20 05:49:51;;;;;;;16.57;11.70;;;;;;;6.60;100.00;101585.78;4990754;28;20231;-68
2023/02/20 05:52:17;;;;;;;18.00;12.57;;;;;;;6.66;100.00;101591.16;4988113;28;20211;-69
2023/02/20 05:54:45;;;;;;;17.07;12.10;;;;;;;6.63;100.00;101574.88;4990218;28;20198;-68
2023/02/20 05:57:11;;;;;;;16.97;11.53;;;;;;;6.65;100.00;101588.53;4988976;28;20215;-69
2023/02/20 05:59:37;;;;;;;16.10;11.37;;;;;;;6.63;100.00;101560.47;4996410;28;20721;-68
2023/02/20 06:02:03;;;;;;;17.93;11.90;;;;;;;6.67;100.00;101571.66;4992075;28;20203;-68
2023/02/20 06:04:29;;;;;;;18.07;12.03;;;;;;;6.68;100.00;101563.25;4984136;28;20187;-67
2023/02/20 06:06:55;;;;;;;15.53;11.57;;;;;;;6.68;100.00;101561.56;4984775;28;20199;-66
2023/02/20 06:09:20;;;;;;;19.70;12.50;;;;;;;6.67;100.00;101564.03;4993838;28;20211;-69
2023/02/20 06:11:54;;;;;;;19.40;11.97;;;;;;;6.67;100.00;101575.09;4992497;28;20215;-68
2023/02/20 06:14:21;;;;;;;16.73;11.73;;;;;;;6.67;100.00;101558.94;4994337;28;20195;-67
2023/02/20 06:16:47;;;;;;;20.73;12.13;;;;;;;6.75;100.00;101558.50;4989536;28;20728;-67
2023/02/20 06:19:21;;;;;;;17.87;12.57;;;;;;;6.78;100.00;101553.53;4981491;28;20200;-68
2023/02/20 06:21:48;;;;;;;18.17;11.70;;;;;;;6.78;100.00;101538.25;4983550;28;20298;-69
2023/02/20 06:24:14;;;;;;;18.50;12.67;;;;;;;6.75;100.00;101540.69;4990583;28;20323;-69
2023/02/20 06:26:41;;;;;;;17.20;11.70;;;;;;;6.75;100.00;101540.69;4991116;28;20287;-68
2023/02/20 06:29:07;;;;;;;17.23;11.80;;;;;;;6.71;100.00;101532.84;4987016;28;20203;-69
2023/02/20 06:31:32;;;;;;;20.23;12.13;;;;;;;6.74;100.00;101533.88;4991618;28;20219;-69
2023/02/20 06:33:58;;;;;;;18.63;12.37;;;;;;;6.76;100.00;101534.78;4981093;28;20189;-68
2023/02/20 06:36:30;;;;;;;19.70;13.00;;;;;;;6.79;100.00;101522.22;4985688;28;20665;-67
2023/02/20 06:38:57;;;;;;;18.60;11.90;;;;;;;6.76;100.00;101523.72;4995536;28;20648;-68
2023/02/20 06:41:22;;;;;;;17.50;11.90;;;;;;;6.78;100.00;101522.16;4991709;28;20350;-69
2023/02/20 06:43:48;;;;;;;18.57;12.30;;;;;;;6.75;100.00;101525.44;4993633;28;20285;-67
2023/02/20 06:46:13;;;;;;;20.97;11.93;;;;;;;6.79;100.00;101528.97;4990507;28;20276;-68
2023/02/20 06:48:51;;;;;;;19.63;12.07;;;;;;;6.77;100.00;101535.69;4975634;28;20254;-69
2023/02/20 06:51:26;;;;;;;20.10;12.20;;;;;;;6.75;100.00;101534.72;4980594;28;20212;-68
2023/02/20 06:53:51;;;;;;;20.67;13.40;;;;;;;6.77;100.00;101540.78;4985610;28;20218;-69
2023/02/20 06:56:19;;;;;;;18.83;12.83;;;;;;;6.81;100.00;101542.66;4982583;28;20214;-68
2023/02/20 06:58:47;;;;;;;21.30;13.63;;;;;;;6.84;100.00;101536.03;4987566;28;20207;-69
2023/02/20 07:01:13;;;;;;;19.70;13.03;;;;;;;6.87;100.00;101543.78;4987285;28;20220;-67
2023/02/20 07:03:38;;;;;;;20.90;14.37;;;;;;;6.94;100.00;101543.25;4989448;28;20252;-69
2023/02/20 07:06:04;;;;;;;20.40;13.67;;;;;;;7.01;100.00;101529.13;4996581;28;20772;-69
2023/02/20 07:08:29;;;;;;;20.57;13.70;;;;;;;7.05;100.00;101534.41;4986598;28;20692;-69
2023/02/20 07:10:55;;;;;;;22.67;13.80;;;;;;;7.09;100.00;101526.13;4994992;28;20701;-67
2023/02/20 07:13:21;;;;;;;22.43;14.17;;;;;;;7.11;100.00;101534.72;4984158;28;20279;-69
2023/02/20 07:15:47;;;;;;;20.67;13.73;;;;;;;7.13;100.00;101520.34;4993459;28;20282;-69
2023/02/20 07:18:13;;;;;;;23.97;15.60;;;;;;;7.22;100.00;101530.94;4982801;28;20904;-69
2023/02/20 07:20:39;;;;;;;19.83;15.57;;;;;;;7.25;100.00;101537.84;4996265;28;20214;-70
2023/02/20 07:23:04;;;;;;;22.47;16.30;;;;;;;7.31;100.00;101538.09;4985086;28;20719;-69
2023/02/20 07:25:29;;;;;;;21.80;15.30;;;;;;;7.34;100.00;101538.25;4991788;28;20204;-67
2023/02/20 07:27:55;;;;;;;23.20;16.07;;;;;;;7.35;100.00;101545.06;4989341;28;20274;-69
2023/02/20 07:30:23;;;;;;;23.80;16.93;;;;;;;7.39;100.00;101542.75;4993674;28;20247;-67
2023/02/20 07:32:49;;;;;;;23.53;16.30;;;;;;;7.40;100.00;101529.19;4987732;28;20198;-69
2023/02/20 07:35:15;;;;;;;24.90;18.57;;;;;;;7.41;100.00;101530.94;4991695;28;20591;-69
2023/02/20 07:37:40;;;;;;;26.33;19.33;;;;;;;7.47;100.00;101530.31;4991953;28;20257;-68
2023/02/20 07:40:06;;;;;;;27.10;18.33;;;;;;;7.47;100.00;101531.19;4991047;28;20196;-68
2023/02/20 07:42:31;;;;;;;25.47;18.57;;;;;;;7.49;100.00;101541.44;4986794;28;20207;-69
2023/02/20 07:45:05;;;;;;;25.63;18.80;;;;;;;7.51;100.00;101535.59;4979337;28;20196;-68
2023/02/20 07:47:31;;;;;;;23.57;19.13;;;;;;;7.52;100.00;101529.72;4988714;28;20203;-68
2023/02/20 07:49:56;;;;;;;25.33;19.03;;;;;;;7.53;100.00;101530.56;4993100;28;20194;-69
2023/02/20 07:52:22;;;;;;;26.83;19.43;;;;;;;7.53;100.00;101523.81;4988139;28;20227;-69
2023/02/20 07:54:47;;;;;;;28.83;19.83;;;;;;;7.55;100.00;101522.19;4985741;28;20194;-69
2023/02/20 07:57:14;;;;;;;28.70;20.90;;;;;;;7.57;100.00;101522.25;4986364;28;20208;-69
2023/02/20 07:59:40;;;;;;;26.80;19.87;;;;;;;7.56;100.00;101513.72;4991344;28;20233;-69
2023/02/20 08:02:06;;;;;;;29.83;22.20;;;;;;;7.57;100.00;101519.72;4989882;28;20254;-68
2023/02/20 08:04:31;;;;;;;29.23;21.30;;;;;;;7.59;100.00;101513.00;4984279;28;20196;-69
2023/02/20 08:06:57;;;;;;;30.27;22.13;;;;;;;7.59;100.00;101513.88;4991982;28;20195;-68
2023/02/20 08:09:22;;;;;;;26.80;20.53;;;;;;;7.60;100.00;101504.56;4984279;28;20247;-68
2023/02/20 08:11:48;;;;;;;27.80;20.47;;;;;;;7.60;100.00;101502.00;4997794;28;20219;-68
2023/02/20 08:14:13;;;;;;;28.80;20.73;;;;;;;7.61;100.00;101506.28;4985741;28;20200;-69
2023/02/20 08:16:39;;;;;;;30.23;22.13;;;;;;;7.61;100.00;101502.06;4994223;28;20222;-68
2023/02/20 08:19:04;;;;;;;31.03;21.67;;;;;;;7.61;100.00;101499.50;4986883;28;20191;-69
2023/02/20 08:21:30;;;;;;;32.13;22.13;;;;;;;7.63;100.00;101492.81;5001831;28;20208;-69
2023/02/20 08:23:56;;;;;;;35.20;21.77;;;;;;;7.64;100.00;101475.84;4988193;28;20611;-68
2023/02/20 08:26:21;;;;;;;29.13;22.73;;;;;;;7.64;100.00;101481.81;4997435;28;20215;-69
2023/02/20 08:28:48;;;;;;;33.23;22.43;;;;;;;7.66;100.00;101481.88;4991456;28;20188;-68
2023/02/20 08:31:15;;;;;;;33.40;23.77;;;;;;;7.67;100.00;101484.50;4992682;28;20226;-65
2023/02/20 08:33:40;;;;;;;33.47;23.33;;;;;;;7.67;100.00;101479.38;4992619;28;20765;-68
2023/02/20 08:36:06;;;;;;;34.23;23.63;;;;;;;7.67;100.00;101481.94;4995014;28;20196;-69
2023/02/20 08:38:34;;;;;;;34.23;23.57;;;;;;;7.67;100.00;101468.31;4989281;28;20205;-67
2023/02/20 08:41:06;;;;;;;35.43;24.80;;;;;;;7.67;100.00;101471.75;4998806;28;20693;-67
2023/02/20 08:43:32;;;;;;;33.10;24.33;;;;;;;7.69;100.00;101480.31;4991262;28;20191;-68
2023/02/20 08:45:58;;;;;;;35.27;24.37;;;;;;;7.67;100.00;101464.09;4995229;28;20195;-68
2023/02/20 08:48:23;;;;;;;36.90;24.53;;;;;;;7.69;100.00;101467.56;4991079;28;20215;-68
2023/02/20 08:50:49;;;;;;;38.93;25.30;;;;;;;7.70;100.00;101446.34;4985830;28;20220;-69
2023/02/20 08:53:15;;;;;;;37.90;24.57;;;;;;;7.71;100.00;101449.78;4990914;28;20286;-68
2023/02/20 08:55:41;;;;;;;36.67;24.27;;;;;;;7.70;100.00;101451.47;4987329;28;20195;-68
2023/02/20 08:58:06;;;;;;;35.37;24.50;;;;;;;7.70;100.00;101446.34;4992104;28;20219;-68
2023/02/20 09:00:32;;;;;;;34.60;24.23;;;;;;;7.69;100.00;101438.69;4987474;28;20220;-68
2023/02/20 09:02:58;;;;;;;37.03;25.57;;;;;;;7.69;100.00;101442.06;4994777;28;20551;-68
2023/02/20 09:05:24;;;;;;;40.03;25.83;;;;;;;7.69;100.00;101436.97;4986932;28;20212;-69
2023/02/20 09:07:50;;;;;;;42.67;26.97;;;;;;;7.70;100.00;101428.53;4996078;28;20196;-70
2023/02/20 09:10:18;;;;;;;39.27;25.37;;;;;;;7.70;100.00;101430.22;4984303;28;20216;-69
2023/02/20 09:12:43;;;;;;;40.47;25.70;;;;;;;7.74;100.00;101427.00;4990674;28;20219;-68
2023/02/20 09:15:09;;;;;;;37.50;25.87;;;;;;;7.76;100.00;101418.59;4984116;28;20294;-69
2023/02/20 09:17:34;;;;;;;44.57;27.57;;;;;;;7.78;100.00;101414.41;4996043;28;20219;-69
2023/02/20 09:20:00;;;;;;;37.50;25.23;;;;;;;7.80;100.00;101404.28;4986128;28;20200;-69
2023/02/20 09:22:26;;;;;;;44.87;27.77;;;;;;;7.80;100.00;101406.81;4992169;28;20283;-68
2023/02/20 09:24:53;;;;;;;48.47;28.00;;;;;;;7.85;100.00;101406.22;4986201;28;20215;-67
2023/02/20 09:27:19;;;;;;;40.90;26.30;;;;;;;7.81;100.00;101396.69;4991045;28;20183;-69
2023/02/20 09:29:45;;;;;;;40.40;27.73;;;;;;;7.83;100.00;101391.66;4988309;28;20191;-70
2023/02/20 09:32:12;;;;;;;44.93;29.77;;;;;;;7.81;100.00;101381.41;4991706;28;20247;-69
2023/02/20 09:34:38;;;;;;;46.27;30.57;;;;;;;7.80;100.00;101378.78;4990078;28;20263;-66
2023/02/20 09:37:03;;;;;;;48.53;30.77;;;;;;;7.81;100.00;101383.06;4991142;28;20215;-67
2023/02/20 09:39:29;;;;;;;54.00;31.90;;;;;;;7.82;100.00;101384.81;4984230;28;20192;-69
2023/02/20 09:42:06;;;;;;;48.93;30.27;;;;;;;7.82;100.00;101383.13;4988443;28;20215;-69
2023/02/20 09:44:50;;;;;;;46.53;30.63;;;;;;;7.84;100.00;101378.94;4986805;28;20219;-66
2023/02/20 09:47:51;;;;;;;48.93;31.37;;;;;;;7.84;100.00;101386.59;4987245;28;20334;-69
2023/02/20 09:50:47;;;;;;;49.97;31.10;;;;;;;7.83;100.00;101372.13;4992218;28;20332;-67
2023/02/20 09:53:37;;;;;;;53.57;32.17;;;;;;;7.86;100.00;101372.25;4990627;28;20251;-69
2023/02/20 09:56:09;;;;;;;56.83;35.37;;;;;;;7.86;100.00;101373.91;4981427;28;20192;-70
2023/02/20 09:58:46;;;;;;;54.07;34.10;;;;;;;7.86;100.00;101361.16;4983872;28;20932;-69
2023/02/20 10:01:17;;;;;;;56.07;32.70;;;;;;;7.89;100.00;101359.63;4980230;28;20219;-70
2023/02/20 10:03:56;;;;;;;52.80;31.93;;;;;;;7.91;100.00;101352.91;4984077;28;20244;-68
2023/02/20 10:06:25;;;;;;;59.80;34.50;;;;;;;7.94;100.00;101360.66;4981769;28;20261;-68
2023/02/20 10:08:51;;;;;;;57.77;34.07;;;;;;;7.97;100.00;101353.13;4990060;28;20191;-69
2023/02/20 10:11:51;;;;;;;51.73;31.73;;;;;;;8.02;100.00;101360.97;4985146;28;20215;-69
2023/02/20 10:14:37;;;;;;;54.83;31.50;;;;;;;8.04;100.00;101352.56;4991425;28;20212;-71
2023/02/20 10:17:29;;;;;;;54.10;33.13;;;;;;;8.08;100.00;101345.88;4985633;28;20847;-70
2023/02/20 10:20:12;;;;;;;56.43;30.87;;;;;;;8.11;100.00;101343.44;4985361;28;20199;-68
2023/02/20 10:22:55;;;;;;;54.03;33.13;;;;;;;8.13;100.00;101339.25;4982146;28;20203;-68
2023/02/20 10:25:31;;;;;;;52.70;31.90;;;;;;;8.30;100.00;101346.75;4981322;28;20199;-67
2023/02/20 10:28:05;;;;;;;55.70;31.13;;;;;;;8.32;100.00;101350.22;4965925;28;20229;-67
2023/02/20 10:30:37;;;;;;;47.00;30.17;;;;;;;8.39;100.00;101346.22;4984569;28;20231;-67
2023/02/20 10:33:08;;;;;;;49.30;29.60;;;;;;;8.38;100.00;101337.69;4988724;28;20195;-67
2023/02/20 10:35:48;;;;;;;48.77;30.07;;;;;;;8.42;100.00;101344.66;4984318;28;20211;-67
2023/02/20 10:38:19;;;;;;;46.90;29.10;;;;;;;8.48;100.00;101332.09;4981727;28;20216;-67
2023/02/20 10:40:57;;;;;;;46.53;27.67;;;;;;;8.57;100.00;101334.13;4987675;28;20211;-67
2023/02/20 10:43:37;;;;;;;47.67;27.73;;;;;;;8.62;100.00;101347.91;4986837;28;20286;-67
2023/02/20 10:46:11;;;;;;;41.77;26.73;;;;;;;8.64;100.00;101342.03;4983670;28;20207;-67
2023/02/20 10:48:38;;;;;;;48.37;28.30;;;;;;;8.68;100.00;101337.91;4985900;28;20196;-67
2023/02/20 10:51:10;;;;;;;45.20;26.30;;;;;;;8.70;100.00;101338.84;4982503;28;20215;-67
2023/02/20 10:53:51;;;;;;;44.90;26.63;;;;;;;8.76;100.00;101326.28;4987588;28;20316;-67
2023/02/20 10:56:34;;;;;;;40.07;23.87;;;;;;;8.79;100.00;101334.03;4981328;28;20290;-67
2023/02/20 10:59:08;;;;;;;42.20;23.17;;;;;;;8.79;100.00;101328.91;4987555;28;20191;-67
2023/02/20 11:01:36;;;;;;;37.47;24.33;;;;;;;8.88;100.00;101327.56;4982354;28;20227;-67
2023/02/20 11:04:14;;;;;;;38.73;23.70;;;;;;;8.80;100.00;101325.56;4989135;28;20215;-69
2023/02/20 11:06:56;;;;;;;37.40;22.20;;;;;;;8.76;100.00;101322.03;4985306;28;20652;-69
2023/02/20 11:09:22;;;;;;;38.30;21.03;;;;;;;8.78;100.00;101317.84;4986540;28;20564;-69
2023/02/20 11:11:48;;;;;;;33.67;19.47;;;;;;;8.81;100.00;101330.69;4982593;28;20215;-69
2023/02/20 11:14:41;;;;;;;32.30;18.97;;;;;;;8.87;100.00;101320.72;4985047;28;20278;-69
2023/02/20 11:17:21;;;;;;;34.83;19.10;;;;;;;8.89;100.00;101320.78;4985107;28;20231;-69
2023/02/20 11:19:53;;;;;;;31.77;17.17;;;;;;;8.88;100.00;101314.78;4987556;28;20211;-68
2023/02/20 11:22:38;;;;;;;31.73;17.50;;;;;;;8.89;100.00;101324.19;4989625;28;20191;-69
2023/02/20 11:25:16;;;;;;;28.30;17.13;;;;;;;8.93;100.00;101320.03;4986695;28;20282;-69
2023/02/20 11:27:46;;;;;;;28.80;17.47;;;;;;;8.92;100.00;101319.19;4970644;28;20692;-70
2023/02/20 11:30:29;;;;;;;28.30;16.10;;;;;;;8.92;100.00;101321.75;4984713;28;20204;-69
2023/02/20 11:33:01;;;;;;;23.83;15.37;;;;;;;8.95;100.00;101326.97;4987401;28;20206;-70
2023/02/20 11:35:31;;;;;;;24.23;16.13;;;;;;;8.98;100.00;101331.31;4987853;28;20220;-68
2023/02/20 11:38:17;;;;;;;26.67;15.73;;;;;;;9.00;100.00;101333.09;4986141;28;20211;-69
2023/02/20 11:41:02;;;;;;;24.60;14.37;;;;;;;9.04;100.00;101344.25;4986299;28;20225;-70